createdAt,value
2023-01-18T00:13:50.774Z,61.60
2023-01-18T01:29:26.784Z,44.30
2023-01-18T01:55:01.913Z,44.37
2023-01-18T02:30:33.820Z,41.30
2023-01-18T02:56:12.415Z,34.20
2023-01-18T03:21:41.043Z,33.03
2023-01-18T03:46:25.485Z,19.97
2023-01-18T04:07:05.481Z,14.70
2023-01-18T04:27:25.631Z,21.97
2023-01-18T04:57:57.735Z,19.37
2023-01-18T05:07:46.605Z,22.20
2023-01-18T05:17:53.395Z,21.53
2023-01-18T05:48:13.918Z,19.07
2023-01-18T06:13:33.669Z,16.23
2023-01-18T06:38:32.022Z,11.13
2023-01-18T06:59:29.330Z,12.27
2023-01-18T07:29:42.262Z,10.70
2023-01-18T07:50:20.489Z,5.33
2023-01-18T07:54:33.811Z,8.37
2023-01-18T08:40:35.584Z,5.57
2023-01-18T09:56:20.434Z,4.77
2023-01-18T10:22:20.557Z,4.50
2023-01-18T10:42:06.891Z,5.23
2023-01-18T11:27:53.907Z,6.53
2023-01-18T12:18:55.705Z,6.27
2023-01-18T12:48:54.835Z,5.27
2023-01-18T13:14:43.210Z,5.03
2023-01-18T13:44:43.804Z,6.37
2023-01-18T14:10:33.460Z,9.83
2023-01-18T14:30:35.972Z,9.53
2023-01-18T15:36:12.451Z,17.07
2023-01-18T16:21:50.571Z,18.73
2023-01-18T16:42:07.123Z,18.53
2023-01-18T17:02:36.356Z,17.37
2023-01-18T17:28:28.745Z,22.40
2023-01-18T18:03:39.499Z,24.27
2023-01-18T18:24:14.694Z,27.60
2023-01-18T19:04:06.514Z,30.03
2023-01-18T19:25:07.529Z,32.03
2023-01-18T19:55:17.732Z,33.87
2023-01-18T20:25:53.223Z,33.13
2023-01-18T20:51:07.566Z,29.17
2023-01-18T21:36:56.797Z,28.63
2023-01-18T22:16:50.130Z,27.00
2023-01-18T22:42:43.615Z,26.73
2023-01-18T23:13:12.452Z,28.40
2023-01-18T23:53:28.749Z,29.43
